^^
Meteo Knjazevac Station Historical Data
Daily Summary for October 30, 2021 Units:  Metric    English   Both
Daily Weekly Monthly Yearly Custom
  High: Low: Average:
Temperature: 4.6 °C -0.4 °C 1.6 °C
Dew Point: 3.6 °C -1.2 °C 0.9 °C
Humidity: 99% 91% 95%
Wind Speed: 4.8km/h 0km/h 1.3km/h
Wind Gust: 8km/h - -
Wind- - West
Pressure: 1027 hPa 1025.6 hPa -
Precipitation: 0 mm    
Historical Graphs
 
 
Tabular Data for October 30, 2021
Time Temperature Dew Point Pressure Wind Wind Speed Wind Gust Humidity Rainfall Rate (Hourly) solar Conditions
00:00 4.6 °C 3.6 °C 1025.6 hPa Calm   3.2 km/h 93% 0 mm 0 W/m2
00:10 4.5 °C 3.6 °C 1025.6 hPa Calm   3.2 km/h 94% 0 mm 0 W/m2
00:20 4.5 °C 3.4 °C 1025.6 hPa NE 1.6 km/h 4.8 km/h 93% 0 mm 0 W/m2
00:30 4.3 °C 3.3 °C 1025.6 hPa Calm   1.6 km/h 93% 0 mm 0 W/m2
00:40 4 °C 3 °C 1026 hPa Calm   4.8 km/h 93% 0 mm 0 W/m2
00:50 3.8 °C 2.8 °C 1026 hPa Calm   4.8 km/h 93% 0 mm 0 W/m2
01:00 3.7 °C 2.8 °C 1026 hPa Calm   3.2 km/h 94% 0 mm 0 W/m2
01:10 3.6 °C 2.7 °C 1026 hPa NNE 3.2 km/h 4.8 km/h 94% 0 mm 0 W/m2
01:20 3.5 °C 2.6 °C 1026 hPa Calm   4.8 km/h 94% 0 mm 0 W/m2
01:30 3.2 °C 2.2 °C 1026 hPa Calm   1.6 km/h 93% 0 mm 0 W/m2
01:40 2.9 °C 1.6 °C 1026 hPa NW 1.6 km/h 3.2 km/h 91% 0 mm 0 W/m2
01:50 2.6 °C 1.6 °C 1026 hPa Calm   3.2 km/h 93% 0 mm 0 W/m2
02:00 2.5 °C 1.5 °C 1026 hPa Calm   3.2 km/h 93% 0 mm 0 W/m2
02:10 2.3 °C 1.3 °C 1026 hPa Calm   3.2 km/h 93% 0 mm 0 W/m2
02:20 2.1 °C 0.8 °C 1026 hPa Calm   1.6 km/h 91% 0 mm 0 W/m2
02:30 1.9 °C 0.6 °C 1026 hPa Calm   3.2 km/h 91% 0 mm 0 W/m2
02:40 1.7 °C 0.7 °C 1026.3 hPa WNW 3.2 km/h 6.4 km/h 93% 0 mm 0 W/m2
02:50 1.7 °C 0.8 °C 1026.3 hPa Calm   6.4 km/h 94% 0 mm 0 W/m2
03:00 1.5 °C 0.5 °C 1026.3 hPa Calm   1.6 km/h 93% 0 mm 0 W/m2
03:10 1.3 °C 0.3 °C 1026.3 hPa Calm   1.6 km/h 93% 0 mm 0 W/m2
03:20 1.1 °C 0.1 °C 1026.3 hPa NW 1.6 km/h 3.2 km/h 93% 0 mm 0 W/m2
03:30 1.1 °C 0.4 °C 1026.3 hPa NW 3.2 km/h 4.8 km/h 95% 0 mm 0 W/m2
03:40 1 °C 0.2 °C 1026.3 hPa NW 1.6 km/h 4.8 km/h 94% 0 mm 0 W/m2
03:50 0.9 °C 0.2 °C 1026.3 hPa Calm   4.8 km/h 95% 0 mm 0 W/m2
04:00 0.7 °C -0.2 °C 1026.3 hPa Calm   3.2 km/h 94% 0 mm 0 W/m2
04:10 0.6 °C -0.3 °C 1026.3 hPa Calm   3.2 km/h 94% 0 mm 0 W/m2
04:20 0.5 °C -0.3 °C 1026.3 hPa NW 1.6 km/h 3.2 km/h 94% 0 mm 0 W/m2
04:30 0.3 °C -0.6 °C 1026.3 hPa NW 1.6 km/h 3.2 km/h 94% 0 mm 0 W/m2
04:40 0.1 °C -0.8 °C 1026.3 hPa NNW 3.2 km/h 4.8 km/h 94% 0 mm 0 W/m2
04:50 0.1 °C -0.8 °C 1026.3 hPa Calm   3.2 km/h 94% 0 mm 0 W/m2
05:00 -0.1 °C -0.9 °C 1026.3 hPa Calm   3.2 km/h 94% 0 mm 0 W/m2
05:10 -0.3 °C -1.1 °C 1026.3 hPa Calm   3.2 km/h 94% 0 mm 0 W/m2
05:20 -0.3 °C -1.2 °C 1026.3 hPa Calm   3.2 km/h 94% 0 mm 0 W/m2
05:30 -0.4 °C -1.2 °C 1026.6 hPa NW 1.6 km/h 3.2 km/h 94% 0 mm 0 W/m2
05:40 -0.4 °C -1.1 °C 1026.6 hPa Calm   3.2 km/h 95% 0 mm 0 W/m2
05:50 -0.2 °C -0.8 °C 1026.6 hPa NW 1.6 km/h 3.2 km/h 96% 0 mm 0 W/m2
06:00 -0.1 °C -0.7 °C 1026.6 hPa WNW 3.2 km/h 6.4 km/h 96% 0 mm 0 W/m2
06:10 0 °C -0.3 °C 1026.6 hPa WNW 3.2 km/h 6.4 km/h 98% 0 mm 0 W/m2
06:20 0.2 °C -0.1 °C 1026.6 hPa WNW 3.2 km/h 6.4 km/h 98% 0 mm 0 W/m2
06:30 0.4 °C 0.1 °C 1026.3 hPa Calm   6.4 km/h 98% 0 mm 0 W/m2
06:40 0.4 °C 0.1 °C 1026.3 hPa WNW 1.6 km/h 3.2 km/h 98% 0 mm 0 W/m2
06:50 0.5 °C -0.1 °C 1026.3 hPa WNW 1.6 km/h 3.2 km/h 96% 0 mm 0 W/m2
07:00 0.6 °C 0.3 °C 1026.3 hPa West 3.2 km/h 4.8 km/h 98% 0 mm 0 W/m2
07:10 0.8 °C 0.5 °C 1026.3 hPa WNW 3.2 km/h 4.8 km/h 98% 0 mm 2 W/m2
07:20 1 °C 0.8 °C 1026.3 hPa WNW 3.2 km/h 8 km/h 99% 0 mm 5 W/m2
07:30 1.2 °C 0.9 °C 1026.6 hPa WNW 3.2 km/h 4.8 km/h 98% 0 mm 9 W/m2
07:40 1.2 °C 0.9 °C 1026.6 hPa WNW 1.6 km/h 4.8 km/h 98% 0 mm 13 W/m2
07:50 1.3 °C 1 °C 1026.6 hPa WNW 4.8 km/h 8 km/h 98% 0 mm 17 W/m2
08:00 1.4 °C 1.1 °C 1026.6 hPa WNW 3.2 km/h 6.4 km/h 98% 0 mm 21 W/m2
08:10 1.5 °C 1.2 °C 1026.6 hPa WNW 3.2 km/h 4.8 km/h 98% 0 mm 27 W/m2
08:20 1.7 °C 1.4 °C 1026.6 hPa WNW 1.6 km/h 4.8 km/h 98% 0 mm 34 W/m2
08:30 2 °C 1.8 °C 1026.6 hPa West 1.6 km/h 3.2 km/h 99% 0 mm 42 W/m2
08:40 2.1 °C 1.9 °C 1026.6 hPa West 1.6 km/h 3.2 km/h 99% 0 mm 46 W/m2
08:50 2.4 °C 2.2 °C 1026.6 hPa NW 1.6 km/h 3.2 km/h 99% 0 mm 54 W/m2
09:00 2.6 °C 2.4 °C 1026.6 hPa Calm   3.2 km/h 99% 0 mm 60 W/m2
09:10 2.8 °C 2.7 °C 1027 hPa Calm   3.2 km/h 99% 0 mm 69 W/m2
Knjazevac, Serbia
Compliments of Weather Underground - 2 mb